Lee Ann Ingram — WDB8152 — position and weather

sailwx.info

Track history (hours):
 
Tides and Currents Weather Stations Pressure Air Temp Water Temp Dewpoint Dewpoint Depression Visibility Wind Speed Wind Dir Waves Ship Positions

Lee Ann Ingram

Owner: Ingram Barge Company LLC, Nashville, TN. More information available from US FCC via Universal Licensing System and Coast Guard Vessel Documentation Center.

Last reported at 2018-May-15 14:07 UTC. Time now 2018-May-24 14:07 UTC.
Position N 38°45' W 090°09'.
Warning: this ship's position is 9 days out of date.

Length 48 m; draft 3 m.

Type: Ship (hazmat cat B). MMSI: 366953880.

Date/timePositionNaut miles runAvg speedWind from/ knotsBaromVisibWave heightAir tempDewpointWater temp
2018-May-15 14:07N 38°45' W 090°09'0 0.2
2018-May-15 14:00N 38°45' W 090°09'3 2.3
2018-May-15 12:45N 38°42' W 090°11'1 2.6
2018-May-15 12:29N 38°41' W 090°11'2 4.9
2018-May-15 12:00N 38°39' W 090°11'  
2018-May-10 13:19N 38°35' W 090°13'3 8.3
2018-May-10 13:00N 38°37' W 090°11'4 8.2
2018-May-10 12:30N 38°41' W 090°11'1 1.7
2018-May-10 12:00N 38°42' W 090°11'1 2.9
2018-May-10 11:30N 38°43' W 090°10'1 1.0
2018-May-10 11:00N 38°44' W 090°10'0 0.1
2018-May-10 10:30N 38°44' W 090°10'1 1.3
2018-May-10 10:00N 38°44' W 090°09'2 3.2
2018-May-10 09:30N 38°46' W 090°08'2 3.4
2018-May-10 09:00N 38°47' W 090°07'4 7.4
2018-May-10 08:30N 38°51' W 090°07'2 3.2
2018-May-10 07:55N 38°52' W 090°09'1 1.5
2018-May-10 07:30N 38°53' W 090°10'3 6.1
2018-May-10 07:00N 38°54' W 090°13'3 6.9
2018-May-10 06:30N 38°55' W 090°17'4 7.1
2018-May-10 06:00N 38°57' W 090°21'4 7.1
2018-May-10 05:30N 38°58' W 090°26'3 6.9
2018-May-10 05:00N 38°56' W 090°30'3 6.8
2018-May-10 04:30N 38°53' W 090°32'3 6.6
2018-May-10 04:00N 38°52' W 090°36'3 6.6
2018-May-10 03:30N 38°55' W 090°39'5 6.9
2018-May-10 02:44N 38°60' W 090°41'1 2.6
2018-May-10 02:30N 39°00' W 090°41'0 0.3
2018-May-10 02:00N 39°00' W 090°41'0 0.1
2018-May-10 01:30N 39°00' W 090°41'2 3.9
2018-May-10 01:00N 39°02' W 090°42'1 1.5
2018-May-10 00:27N 39°03' W 090°43'0 0.0
2018-May-09 23:53N 39°03' W 090°43'0 0.0
2018-May-09 23:30N 39°03' W 090°43'0 0.0
2018-May-09 22:55N 39°03' W 090°43'  
Track history (hours):
 
Tides and Currents Weather Stations Pressure Air Temp Water Temp Dewpoint Dewpoint Depression Visibility Wind Speed Wind Dir Waves Ship Positions

Lee Ann Ingram

Owner: Ingram Barge Company LLC, Nashville, TN. More information available from US FCC via Universal Licensing System and Coast Guard Vessel Documentation Center.

Last reported at 2018-May-15 14:07 UTC. Time now 2018-May-24 14:07 UTC.
Position N 38°45' W 090°09'.
Warning: this ship's position is 9 days out of date.

Length 48 m; draft 3 m.

Type: Ship (hazmat cat B). MMSI: 366953880.

Date/timePositionNaut miles runAvg speedWind from/ knotsBaromVisibWave heightAir tempDewpointWater temp
2018-May-15 14:07N 38°45' W 090°09'0 0.2
2018-May-15 14:00N 38°45' W 090°09'3 2.3
2018-May-15 12:45N 38°42' W 090°11'1 2.6
2018-May-15 12:29N 38°41' W 090°11'2 4.9
2018-May-15 12:00N 38°39' W 090°11'  
2018-May-10 13:19N 38°35' W 090°13'3 8.3
2018-May-10 13:00N 38°37' W 090°11'4 8.2
2018-May-10 12:30N 38°41' W 090°11'1 1.7
2018-May-10 12:00N 38°42' W 090°11'1 2.9
2018-May-10 11:30N 38°43' W 090°10'1 1.0
2018-May-10 11:00N 38°44' W 090°10'0 0.1
2018-May-10 10:30N 38°44' W 090°10'1 1.3
2018-May-10 10:00N 38°44' W 090°09'2 3.2
2018-May-10 09:30N 38°46' W 090°08'2 3.4
2018-May-10 09:00N 38°47' W 090°07'4 7.4
2018-May-10 08:30N 38°51' W 090°07'2 3.2
2018-May-10 07:55N 38°52' W 090°09'1 1.5
2018-May-10 07:30N 38°53' W 090°10'3 6.1
2018-May-10 07:00N 38°54' W 090°13'3 6.9
2018-May-10 06:30N 38°55' W 090°17'4 7.1
2018-May-10 06:00N 38°57' W 090°21'4 7.1
2018-May-10 05:30N 38°58' W 090°26'3 6.9
2018-May-10 05:00N 38°56' W 090°30'3 6.8
2018-May-10 04:30N 38°53' W 090°32'3 6.6
2018-May-10 04:00N 38°52' W 090°36'3 6.6
2018-May-10 03:30N 38°55' W 090°39'5 6.9
2018-May-10 02:44N 38°60' W 090°41'1 2.6
2018-May-10 02:30N 39°00' W 090°41'0 0.3
2018-May-10 02:00N 39°00' W 090°41'0 0.1
2018-May-10 01:30N 39°00' W 090°41'2 3.9
2018-May-10 01:00N 39°02' W 090°42'1 1.5
2018-May-10 00:27N 39°03' W 090°43'0 0.0
2018-May-09 23:53N 39°03' W 090°43'0 0.0
2018-May-09 23:30N 39°03' W 090°43'0 0.0
2018-May-09 22:55N 39°03' W 090°43'  

Dump ship's entire track history